Time;durP1;ratioP1;P1;durP2;ratioP2;P2;SDS_P1;SDS_P2;PMS_P1;PMS_P2;Temp;Humidity;BMP_temperature;BMP_pressure;BME280_temperature;BME280_humidity;BME280_pressure;Samples;Min_cycle;Max_cycle;Signal;HPM_P1;HPM_P2
2022/06/03 00:00:03;;;;;;;;;;;8.50;99.90;;;;;;5052606;28;19921;-78
2022/06/03 00:02:48;;;;;;;;;;;8.50;99.90;;;;;;5028745;28;19920;-79
2022/06/03 00:05:26;;;;;;;;;;;8.50;99.90;;;;;;5029791;28;19917;-76
2022/06/03 00:08:10;;;;;;;;;;;8.50;99.90;;;;;;5009148;28;19924;-75
2022/06/03 00:10:51;;;;;;;;;;;8.50;99.90;;;;;;5031694;28;19962;-79
2022/06/03 00:13:23;;;;;;;;;;;8.50;99.90;;;;;;5063443;28;19923;-78
2022/06/03 00:15:48;;;;;;;;;;;8.40;99.90;;;;;;5012217;28;20358;-77
2022/06/03 00:18:17;;;;;;;;;;;8.40;99.90;;;;;;5016471;28;19963;-77
2022/06/03 00:20:58;;;;;;;;;;;8.40;99.90;;;;;;5057956;28;19924;-79
2022/06/03 00:23:47;;;;;;;;;;;8.30;99.90;;;;;;5036939;28;20297;-78
2022/06/03 00:26:12;;;;;;;;;;;8.30;99.90;;;;;;5018057;28;19924;-80
2022/06/03 00:29:00;;;;;;;;;;;8.30;99.90;;;;;;5028808;28;20401;-78
2022/06/03 00:31:44;;;;;;;;;;;8.30;99.90;;;;;;5017225;28;20297;-76
2022/06/03 00:34:19;;;;;;;;;;;8.20;99.90;;;;;;5023987;28;20336;-76
2022/06/03 00:36:51;;;;;;;;;;;8.20;99.90;;;;;;5049333;28;19921;-78
2022/06/03 00:39:27;;;;;;;;;;;8.20;99.90;;;;;;5033144;28;19944;-77
2022/06/03 00:41:55;;;;;;;;;;;8.10;99.90;;;;;;5016688;28;19921;-80
2022/06/03 00:44:34;;;;;;;;;;;8.10;99.90;;;;;;5001836;28;19959;-76
2022/06/03 00:47:19;;;;;;;;;;;8.10;99.90;;;;;;5012501;28;19931;-79
2022/06/03 00:50:00;;;;;;;;;;;8.10;99.90;;;;;;5020549;28;20007;-81
2022/06/03 00:52:45;;;;;;;;;;;8.00;99.90;;;;;;5026156;28;19917;-77
2022/06/03 00:55:29;;;;;;;;;;;8.00;99.90;;;;;;5023549;28;19921;-76
2022/06/03 00:58:02;;;;;;;;;;;8.00;99.90;;;;;;5006510;28;20016;-78
2022/06/03 01:00:30;;;;;;;;;;;7.90;99.90;;;;;;5001289;28;19921;-78
2022/06/03 01:02:56;;;;;;;;;;;7.90;99.90;;;;;;4995597;28;19992;-78
2022/06/03 01:05:31;;;;;;;;;;;7.90;99.90;;;;;;5012540;28;20386;-78
2022/06/03 01:07:56;;;;;;;;;;;7.80;99.90;;;;;;5021976;28;19917;-76
2022/06/03 01:10:41;;;;;;;;;;;7.80;99.90;;;;;;5015522;28;19918;-78
2022/06/03 01:13:25;;;;;;;;;;;7.80;99.90;;;;;;5017560;28;19921;-78
2022/06/03 01:15:54;;;;;;;;;;;7.80;99.90;;;;;;5017497;28;19924;-77
2022/06/03 01:18:30;;;;;;;;;;;7.80;99.90;;;;;;4997601;28;19917;-77
2022/06/03 01:20:59;;;;;;;;;;;7.80;99.90;;;;;;5031282;28;19968;-77
2022/06/03 01:23:34;;;;;;;;;;;7.70;99.90;;;;;;5043909;28;19917;-79
2022/06/03 01:26:10;;;;;;;;;;;7.70;99.90;;;;;;4996935;28;20020;-78
2022/06/03 01:28:51;;;;;;;;;;;7.70;99.90;;;;;;5009041;28;19924;-79
2022/06/03 01:31:26;;;;;;;;;;;7.60;99.90;;;;;;5015872;28;19921;-79
2022/06/03 01:34:01;;;;;;;;;;;7.60;99.90;;;;;;5022162;28;19917;-79
2022/06/03 01:36:30;;;;;;;;;;;7.60;99.90;;;;;;5018478;28;19924;-77
2022/06/03 01:38:59;;;;;;;;;;;7.60;99.90;;;;;;5035289;28;19917;-79
2022/06/03 01:41:27;;;;;;;;;;;7.60;99.90;;;;;;5006036;28;19921;-77
2022/06/03 01:44:12;;;;;;;;;;;7.60;99.90;;;;;;5030427;28;19917;-80
2022/06/03 01:46:58;;;;;;;;;;;7.50;99.90;;;;;;5022517;28;19966;-76
2022/06/03 01:49:30;;;;;;;;;;;7.50;99.90;;;;;;5013034;28;19940;-77
2022/06/03 01:52:19;;;;;;;;;;;7.50;99.90;;;;;;5039210;28;19948;-77
2022/06/03 01:55:01;;;;;;;;;;;7.50;99.90;;;;;;5048338;28;20318;-78
2022/06/03 01:57:33;;;;;;;;;;;7.40;99.90;;;;;;5048148;28;19917;-74
2022/06/03 02:00:05;;;;;;;;;;;7.40;99.90;;;;;;5020767;28;19921;-76
2022/06/03 02:02:46;;;;;;;;;;;7.30;99.90;;;;;;4999821;28;20453;-79
2022/06/03 02:05:11;;;;;;;;;;;7.30;99.90;;;;;;5035060;28;19917;-79
2022/06/03 02:07:37;;;;;;;;;;;7.70;99.90;;;;;;5064724;28;20465;-75
2022/06/03 02:10:17;;;;;;;;;;;7.20;99.90;;;;;;5034649;28;19917;-80
2022/06/03 02:13:02;;;;;;;;;;;7.20;99.90;;;;;;5038258;28;19921;-78
2022/06/03 02:15:27;;;;;;;;;;;7.20;99.90;;;;;;5001982;28;19923;-77
2022/06/03 02:17:59;;;;;;;;;;;7.10;99.90;;;;;;5030689;28;20344;-80
2022/06/03 02:20:34;;;;;;;;;;;7.10;99.90;;;;;;5037953;28;19926;-76
2022/06/03 02:23:19;;;;;;;;;;;7.20;99.90;;;;;;5052802;28;19921;-79
2022/06/03 02:25:56;;;;;;;;;;;7.10;99.90;;;;;;5013188;28;19924;-78
2022/06/03 02:28:42;;;;;;;;;;;7.10;99.90;;;;;;5042203;28;20374;-78
2022/06/03 02:31:17;;;;;;;;;;;7.10;99.90;;;;;;5008542;28;19967;-79
2022/06/03 02:33:55;;;;;;;;;;;7.10;99.90;;;;;;5030631;28;19917;-77
2022/06/03 02:36:37;;;;;;;;;;;7.00;99.90;;;;;;5046523;28;19923;-80
2022/06/03 02:39:02;;;;;;;;;;;7.00;99.90;;;;;;5028950;28;19917;-78
2022/06/03 02:41:34;;;;;;;;;;;7.00;99.90;;;;;;4999553;28;20386;-79
2022/06/03 02:44:20;;;;;;;;;;;7.00;99.90;;;;;;5000328;28;19967;-77
2022/06/03 02:46:52;;;;;;;;;;;7.00;99.90;;;;;;5008752;28;19921;-78
2022/06/03 02:49:37;;;;;;;;;;;6.90;99.90;;;;;;5018838;28;19967;-80
2022/06/03 02:52:11;;;;;;;;;;;6.90;99.90;;;;;;5027090;28;19917;-79
2022/06/03 02:54:55;;;;;;;;;;;6.90;99.90;;;;;;5034892;28;19917;-78
2022/06/03 02:57:21;;;;;;;;;;;6.90;99.90;;;;;;5021573;28;19917;-78
2022/06/03 03:00:05;;;;;;;;;;;6.90;99.90;;;;;;5034489;28;19927;-78
2022/06/03 03:02:50;;;;;;;;;;;6.90;99.90;;;;;;5067581;28;20048;-78
2022/06/03 03:05:26;;;;;;;;;;;6.90;99.90;;;;;;5053061;28;20095;-79
2022/06/03 03:08:11;;;;;;;;;;;6.90;99.90;;;;;;5022621;28;19917;-76
2022/06/03 03:10:49;;;;;;;;;;;6.90;99.90;;;;;;4996943;28;19968;-77
2022/06/03 03:13:27;;;;;;;;;;;6.80;99.90;;;;;;5026694;28;20491;-80
2022/06/03 03:16:11;;;;;;;;;;;6.80;99.90;;;;;;5013949;28;20024;-79
2022/06/03 03:18:51;;;;;;;;;;;6.80;99.90;;;;;;5030844;28;20417;-79
2022/06/03 03:21:31;;;;;;;;;;;6.90;99.90;;;;;;5028967;28;19921;-79
2022/06/03 03:24:29;;;;;;;;;;;6.80;99.90;;;;;;5052060;28;20305;-82
2022/06/03 03:27:16;;;;;;;;;;;6.80;99.90;;;;;;5033577;28;20006;-80
2022/06/03 03:29:42;;;;;;;;;;;6.80;99.90;;;;;;5004667;28;20286;-80
2022/06/03 03:32:12;;;;;;;;;;;6.80;99.90;;;;;;5067043;28;19917;-78
2022/06/03 03:34:59;;;;;;;;;;;6.80;99.90;;;;;;5034098;28;20007;-82
2022/06/03 03:37:44;;;;;;;;;;;6.80;99.90;;;;;;5021023;28;19952;-76
2022/06/03 03:40:12;;;;;;;;;;;6.80;99.90;;;;;;5002824;28;19931;-77
2022/06/03 03:42:57;;;;;;;;;;;6.90;99.90;;;;;;5016929;28;19917;-79
2022/06/03 03:45:41;;;;;;;;;;;6.90;99.90;;;;;;5020963;28;19927;-80
2022/06/03 03:48:10;;;;;;;;;;;7.00;99.90;;;;;;5012941;28;19925;-76
2022/06/03 03:50:54;;;;;;;;;;;7.00;99.90;;;;;;5029316;28;19920;-77
2022/06/03 03:53:19;;;;;;;;;;;7.10;99.90;;;;;;5008536;28;20433;-79
2022/06/03 03:55:58;;;;;;;;;;;7.20;99.90;;;;;;5027375;28;19920;-80
2022/06/03 03:58:25;;;;;;;;;;;7.30;99.90;;;;;;5014444;28;20294;-80
2022/06/03 04:00:51;;;;;;;;;;;7.40;99.90;;;;;;4997131;28;19921;-78
2022/06/03 04:03:23;;;;;;;;;;;7.50;99.90;;;;;;4996511;28;19918;-77
2022/06/03 04:05:57;;;;;;;;;;;7.60;99.90;;;;;;5031955;28;20309;-78
2022/06/03 04:08:35;;;;;;;;;;;7.70;99.90;;;;;;5036982;28;19925;-80
2022/06/03 04:11:20;;;;;;;;;;;7.80;99.90;;;;;;5023117;28;20004;-81
2022/06/03 04:13:51;;;;;;;;;;;7.90;99.90;;;;;;5032381;28;20020;-81
2022/06/03 04:16:26;;;;;;;;;;;8.00;99.90;;;;;;5005174;28;20386;-81
2022/06/03 04:18:52;;;;;;;;;;;8.10;99.90;;;;;;5010113;28;19919;-78
2022/06/03 04:21:34;;;;;;;;;;;8.20;99.90;;;;;;5012981;28;19983;-78
2022/06/03 04:24:15;;;;;;;;;;;8.30;99.90;;;;;;5012043;28;20439;-79
2022/06/03 04:26:48;;;;;;;;;;;8.50;99.90;;;;;;5051357;28;19917;-76
2022/06/03 04:29:34;;;;;;;;;;;8.60;99.90;;;;;;5016506;28;19949;-78
2022/06/03 04:32:03;;;;;;;;;;;8.70;99.90;;;;;;5045214;28;19917;-78
2022/06/03 04:34:38;;;;;;;;;;;8.70;99.90;;;;;;5032311;28;20397;-78
2022/06/03 04:37:09;;;;;;;;;;;8.80;99.90;;;;;;5032651;28;19995;-76
2022/06/03 04:39:58;;;;;;;;;;;8.90;99.90;;;;;;5031417;28;19952;-80
2022/06/03 04:42:23;;;;;;;;;;;9.00;99.90;;;;;;5010726;28;19921;-79
2022/06/03 04:45:08;;;;;;;;;;;9.00;99.90;;;;;;5042326;28;19928;-77
2022/06/03 04:47:52;;;;;;;;;;;9.10;99.90;;;;;;5039960;28;19939;-78
2022/06/03 04:50:27;;;;;;;;;;;9.20;99.90;;;;;;5022318;28;19917;-77
2022/06/03 04:53:02;;;;;;;;;;;9.20;99.90;;;;;;5045714;28;19944;-77
2022/06/03 04:55:39;;;;;;;;;;;9.30;99.90;;;;;;5047631;28;19967;-80
2022/06/03 04:58:08;;;;;;;;;;;9.40;99.90;;;;;;5012303;28;19928;-77
2022/06/03 05:01:02;;;;;;;;;;;9.50;99.90;;;;;;5018338;28;19920;-78
2022/06/03 05:03:40;;;;;;;;;;;9.60;99.90;;;;;;5061324;28;19961;-77
2022/06/03 05:06:30;;;;;;;;;;;9.60;99.90;;;;;;5027913;28;20285;-76
2022/06/03 05:08:59;;;;;;;;;;;9.80;99.90;;;;;;5049081;28;19916;-77
2022/06/03 05:11:24;;;;;;;;;;;9.90;99.90;;;;;;5034692;28;19917;-78
2022/06/03 05:13:50;;;;;;;;;;;10.00;99.90;;;;;;5054449;28;19966;-76
2022/06/03 05:16:15;;;;;;;;;;;10.10;99.90;;;;;;5007822;28;19917;-76
2022/06/03 05:18:42;;;;;;;;;;;10.20;99.90;;;;;;5003824;28;19923;-79
2022/06/03 05:21:27;;;;;;;;;;;10.30;99.90;;;;;;5035679;28;19971;-80
2022/06/03 05:23:52;;;;;;;;;;;10.40;99.90;;;;;;5011925;28;19924;-80
2022/06/03 05:26:38;;;;;;;;;;;10.50;99.90;;;;;;5015158;28;19921;-79
2022/06/03 05:29:13;;;;;;;;;;;10.70;99.90;;;;;;5031361;28;19982;-78
2022/06/03 05:31:57;;;;;;;;;;;10.80;99.90;;;;;;5040484;28;19927;-80
2022/06/03 05:34:43;;;;;;;;;;;10.90;99.90;;;;;;5034269;28;19928;-78
2022/06/03 05:37:11;;;;;;;;;;;11.00;99.90;;;;;;5035906;28;20278;-79
2022/06/03 05:40:01;;;;;;;;;;;11.10;99.90;;;;;;5051910;28;19917;-79
2022/06/03 05:42:27;;;;;;;;;;;11.10;99.90;;;;;;4998893;28;19928;-79
2022/06/03 05:45:02;;;;;;;;;;;11.20;99.90;;;;;;5006706;28;19916;-81
2022/06/03 05:47:44;;;;;;;;;;;11.30;99.90;;;;;;5015464;28;20385;-77
2022/06/03 05:50:16;;;;;;;;;;;11.40;99.90;;;;;;5047630;28;19928;-79
2022/06/03 05:52:57;;;;;;;;;;;11.50;99.90;;;;;;5031591;28;19917;-79
2022/06/03 05:55:46;;;;;;;;;;;11.60;99.90;;;;;;5021905;28;19917;-80
2022/06/03 05:58:21;;;;;;;;;;;11.70;99.90;;;;;;4999075;28;19917;-77
2022/06/03 06:01:05;;;;;;;;;;;11.80;99.90;;;;;;5017853;28;19920;-80
2022/06/03 06:03:40;;;;;;;;;;;11.90;99.90;;;;;;5034338;28;20351;-79
2022/06/03 06:06:25;;;;;;;;;;;12.00;99.90;;;;;;5004177;28;19942;-80
2022/06/03 06:09:10;;;;;;;;;;;12.00;99.90;;;;;;5029303;28;20314;-79
2022/06/03 06:11:41;;;;;;;;;;;12.10;99.90;;;;;;5025569;28;19925;-79
2022/06/03 06:14:17;;;;;;;;;;;12.20;99.90;;;;;;5038298;28;20312;-78
2022/06/03 06:16:44;;;;;;;;;;;12.30;99.90;;;;;;5022913;28;19924;-82
2022/06/03 06:19:33;;;;;;;;;;;12.40;99.90;;;;;;5010853;28;20266;-82
2022/06/03 06:22:07;;;;;;;;;;;12.40;99.90;;;;;;5038432;28;20389;-79
2022/06/03 06:24:35;;;;;;;;;;;12.50;99.90;;;;;;5036360;28;20318;-83
2022/06/03 06:27:21;;;;;;;;;;;12.60;99.90;;;;;;5009795;28;19959;-76
2022/06/03 06:30:02;;;;;;;;;;;12.70;99.90;;;;;;5026063;28;19917;-76
2022/06/03 06:32:35;;;;;;;;;;;12.90;99.90;;;;;;5026074;28;19967;-81
2022/06/03 06:35:00;;;;;;;;;;;13.10;99.90;;;;;;5021758;28;19917;-80
2022/06/03 06:37:49;;;;;;;;;;;13.20;99.90;;;;;;5051765;28;20285;-77
2022/06/03 06:40:34;;;;;;;;;;;13.40;99.90;;;;;;5016931;28;19920;-79
2022/06/03 06:43:05;;;;;;;;;;;13.60;99.90;;;;;;5018289;28;19975;-80
2022/06/03 06:45:49;;;;;;;;;;;13.70;99.90;;;;;;5018400;28;20439;-79
2022/06/03 06:48:15;;;;;;;;;;;13.80;99.90;;;;;;5018025;28;20502;-80
2022/06/03 06:50:44;;;;;;;;;;;13.90;99.90;;;;;;5020810;28;19917;-79
2022/06/03 06:53:12;;;;;;;;;;;14.00;99.90;;;;;;5031128;28;19921;-78
2022/06/03 06:55:37;;;;;;;;;;;14.10;99.90;;;;;;5018186;28;19917;-79
2022/06/03 06:58:26;;;;;;;;;;;14.20;99.90;;;;;;5001748;28;20257;-78
2022/06/03 07:00:52;;;;;;;;;;;14.40;99.90;;;;;;5052357;28;19928;-82
2022/06/03 07:03:41;;;;;;;;;;;14.50;99.90;;;;;;5037018;28;19974;-78
2022/06/03 07:06:13;;;;;;;;;;;14.60;99.90;;;;;;5029368;28;20221;-78
2022/06/03 07:08:43;;;;;;;;;;;14.70;99.90;;;;;;5024447;28;19925;-80
2022/06/03 07:11:18;;;;;;;;;;;14.80;99.90;;;;;;5030710;28;19916;-81
2022/06/03 07:13:48;;;;;;;;;;;14.90;99.90;;;;;;5016993;28;19917;-82
2022/06/03 07:22:25;;;;;;;;;;;15.20;99.90;;;;;;5004785;28;19921;-81
2022/06/03 07:25:09;;;;;;;;;;;15.30;99.90;;;;;;5015888;28;20277;-78
2022/06/03 07:27:47;;;;;;;;;;;15.40;99.90;;;;;;5037135;28;19916;-78
2022/06/03 07:30:19;;;;;;;;;;;15.50;99.90;;;;;;5019641;28;19920;-79
2022/06/03 07:32:47;;;;;;;;;;;15.70;99.90;;;;;;5022433;28;19999;-77
2022/06/03 07:35:22;;;;;;;;;;;15.80;99.90;;;;;;5017328;28;20321;-79
2022/06/03 07:37:51;;;;;;;;;;;15.90;99.90;;;;;;5004640;28;19924;-77
2022/06/03 07:40:29;;;;;;;;;;;15.90;99.90;;;;;;5070182;28;19927;-80
2022/06/03 07:43:14;;;;;;;;;;;15.90;99.90;;;;;;5018584;28;19959;-76
2022/06/03 07:45:52;;;;;;;;;;;16.00;99.90;;;;;;5017131;28;19967;-79
2022/06/03 07:48:25;;;;;;;;;;;16.10;99.90;;;;;;5017022;28;19921;-79
2022/06/03 07:50:59;;;;;;;;;;;16.10;99.90;;;;;;5000875;28;19960;-78
2022/06/03 07:53:43;;;;;;;;;;;16.20;99.90;;;;;;5019713;28;19966;-76
2022/06/03 07:56:09;;;;;;;;;;;16.30;99.90;;;;;;5020359;28;19921;-77
2022/06/03 07:58:37;;;;;;;;;;;16.30;99.90;;;;;;5024679;28;19923;-79
2022/06/03 08:01:04;;;;;;;;;;;16.40;99.90;;;;;;5063496;28;19921;-80
2022/06/03 08:03:37;;;;;;;;;;;16.50;99.90;;;;;;4999998;28;19967;-77
2022/06/03 08:06:04;;;;;;;;;;;16.50;99.90;;;;;;5035261;28;19923;-79
2022/06/03 08:11:18;;;;;;;;;;;16.60;99.90;;;;;;5026351;28;19920;-76
2022/06/03 08:13:51;;;;;;;;;;;16.70;99.90;;;;;;5021130;28;19923;-77
2022/06/03 08:16:26;;;;;;;;;;;16.70;99.90;;;;;;5069346;28;19917;-82
2022/06/03 08:18:56;;;;;;;;;;;16.80;99.90;;;;;;5019986;28;20004;-77
2022/06/03 08:21:25;;;;;;;;;;;16.90;99.90;;;;;;5049442;28;20018;-78
2022/06/03 08:23:52;;;;;;;;;;;17.00;99.90;;;;;;5028640;28;20314;-78
2022/06/03 08:26:20;;;;;;;;;;;17.00;99.90;;;;;;5034079;28;20417;-79
2022/06/03 08:28:48;;;;;;;;;;;17.10;99.90;;;;;;5027938;28;19917;-80
2022/06/03 08:31:14;;;;;;;;;;;17.20;99.90;;;;;;5062358;28;19928;-76
2022/06/03 08:33:42;;;;;;;;;;;17.20;99.90;;;;;;5057485;28;19921;-82
2022/06/03 08:36:10;;;;;;;;;;;17.20;99.90;;;;;;5036275;28;19924;-81
2022/06/03 08:38:39;;;;;;;;;;;17.30;99.90;;;;;;5030178;28;19966;-76
2022/06/03 08:41:04;;;;;;;;;;;17.30;99.90;;;;;;5019547;28;19971;-80
2022/06/03 08:43:50;;;;;;;;;;;17.30;99.90;;;;;;5009037;28;19960;-77
2022/06/03 08:46:24;;;;;;;;;;;17.30;99.90;;;;;;4979245;28;20277;-78
2022/06/03 08:48:51;;;;;;;;;;;17.40;99.90;;;;;;5054304;28;19921;-80
2022/06/03 08:51:37;;;;;;;;;;;17.50;99.90;;;;;;5015591;28;19917;-77
2022/06/03 08:54:05;;;;;;;;;;;17.60;99.90;;;;;;5021438;28;19924;-77
2022/06/03 08:56:32;;;;;;;;;;;17.70;99.90;;;;;;5028464;28;19917;-76
2022/06/03 08:59:04;;;;;;;;;;;17.80;99.90;;;;;;5051951;28;19931;-77
2022/06/03 09:01:34;;;;;;;;;;;18.00;99.90;;;;;;5009090;28;19956;-78
2022/06/03 09:04:09;;;;;;;;;;;17.80;99.90;;;;;;5011812;28;20393;-79
2022/06/03 09:06:44;;;;;;;;;;;18.10;99.90;;;;;;5026873;28;20031;-77
2022/06/03 09:09:18;;;;;;;;;;;18.20;99.90;;;;;;5005792;28;19916;-78
2022/06/03 09:11:53;;;;;;;;;;;18.30;99.90;;;;;;5057514;28;19928;-76
2022/06/03 09:14:21;;;;;;;;;;;18.30;99.90;;;;;;5034831;28;20008;-77
2022/06/03 09:16:48;;;;;;;;;;;18.40;99.90;;;;;;5018837;28;19971;-80
2022/06/03 09:19:17;;;;;;;;;;;18.50;99.90;;;;;;5009022;28;20000;-76
2022/06/03 09:21:45;;;;;;;;;;;18.60;99.90;;;;;;5019605;28;19951;-80
2022/06/03 09:24:20;;;;;;;;;;;18.60;99.90;;;;;;5024319;28;19924;-80
2022/06/03 09:26:47;;;;;;;;;;;18.60;99.90;;;;;;5047505;28;19921;-83
2022/06/03 09:29:14;;;;;;;;;;;18.60;99.90;;;;;;5061202;28;19916;-80
2022/06/03 09:31:43;;;;;;;;;;;18.70;99.90;;;;;;5022161;28;20380;-78
2022/06/03 09:34:10;;;;;;;;;;;18.70;99.90;;;;;;5034102;28;19970;-79
2022/06/03 09:36:36;;;;;;;;;;;18.80;99.90;;;;;;5021221;28;20385;-77
2022/06/03 09:39:16;;;;;;;;;;;18.90;99.90;;;;;;5004662;28;19970;-79
2022/06/03 09:41:43;;;;;;;;;;;19.00;99.90;;;;;;5024200;28;19921;-79
2022/06/03 09:44:10;;;;;;;;;;;19.00;99.90;;;;;;5001456;28;19937;-79
2022/06/03 09:46:36;;;;;;;;;;;19.00;99.90;;;;;;4998280;28;20007;-78
2022/06/03 09:49:02;;;;;;;;;;;19.00;98.90;;;;;;5018459;28;19923;-76
2022/06/03 09:54:22;;;;;;;;;;;19.10;99.30;;;;;;5018163;28;19924;-81
2022/06/03 09:56:50;;;;;;;;;;;19.10;99.90;;;;;;5026081;28;20050;-78
2022/06/03 09:59:17;;;;;;;;;;;19.10;99.90;;;;;;5038517;28;19916;-78
2022/06/03 10:01:46;;;;;;;;;;;19.20;99.90;;;;;;5022428;28;19921;-79
2022/06/03 10:04:12;;;;;;;;;;;19.30;99.90;;;;;;5008370;28;20056;-77
2022/06/03 10:06:46;;;;;;;;;;;19.40;99.90;;;;;;4991947;28;19990;-80
2022/06/03 10:17:44;;;;;;;;;;;19.60;99.90;;;;;;5041113;28;19917;-78
2022/06/03 10:20:11;;;;;;;;;;;19.60;99.80;;;;;;5032550;28;20273;-76
2022/06/03 10:22:37;;;;;;;;;;;19.70;99.90;;;;;;5023251;28;19927;-79
2022/06/03 10:25:03;;;;;;;;;;;19.70;99.90;;;;;;5032276;28;19917;-80
2022/06/03 10:27:29;;;;;;;;;;;19.80;99.90;;;;;;5014568;28;19928;-79
2022/06/03 10:29:57;;;;;;;;;;;19.80;99.90;;;;;;5030973;28;19917;-78
2022/06/03 10:32:23;;;;;;;;;;;19.90;99.90;;;;;;5014620;28;19941;-80
2022/06/03 10:34:48;;;;;;;;;;;20.00;99.90;;;;;;5003197;28;19967;-77
2022/06/03 10:37:18;;;;;;;;;;;20.10;99.00;;;;;;5022313;28;20377;-81
2022/06/03 10:39:44;;;;;;;;;;;20.10;99.90;;;;;;5027205;28;20144;-78
2022/06/03 10:42:17;;;;;;;;;;;20.20;99.90;;;;;;5021549;28;19996;-78
2022/06/03 10:44:47;;;;;;;;;;;20.30;99.90;;;;;;5021464;28;20328;-78
2022/06/03 10:47:12;;;;;;;;;;;20.40;99.90;;;;;;5019724;28;20365;-79
2022/06/03 10:49:48;;;;;;;;;;;20.50;99.40;;;;;;5029781;28;19966;-80
2022/06/03 11:03:29;;;;;;;;;;;20.60;99.50;;;;;;5036752;28;19924;-81
2022/06/03 11:05:58;;;;;;;;;;;20.70;99.30;;;;;;5002874;28;19917;-76
2022/06/03 11:08:23;;;;;;;;;;;20.80;99.90;;;;;;5016463;28;19916;-77
2022/06/03 11:10:51;;;;;;;;;;;21.00;99.90;;;;;;5023313;28;19925;-79
2022/06/03 11:13:30;;;;;;;;;;;21.00;96.30;;;;;;5031635;28;19923;-77
2022/06/03 11:16:10;;;;;;;;;;;20.80;93.80;;;;;;5070800;28;19916;-82
2022/06/03 11:18:36;;;;;;;;;;;20.70;93.00;;;;;;5031874;28;20003;-76
2022/06/03 11:21:22;;;;;;;;;;;20.80;98.30;;;;;;5017457;28;20013;-80
2022/06/03 11:23:58;;;;;;;;;;;20.90;95.30;;;;;;5024913;28;19917;-80
2022/06/03 11:26:38;;;;;;;;;;;21.00;93.30;;;;;;5051165;28;19929;-82
2022/06/03 11:29:11;;;;;;;;;;;20.90;93.10;;;;;;5009892;28;19917;-82
2022/06/03 11:31:41;;;;;;;;;;;20.80;90.50;;;;;;4997316;28;19917;-78
2022/06/03 11:34:14;;;;;;;;;;;20.60;92.10;;;;;;5006734;28;19925;-77
2022/06/03 11:36:41;;;;;;;;;;;20.60;97.30;;;;;;4997774;28;19960;-78
2022/06/03 11:39:13;;;;;;;;;;;20.80;95.60;;;;;;5060599;28;19924;-78
2022/06/03 11:41:57;;;;;;;;;;;21.10;96.90;;;;;;5020229;28;19924;-79
2022/06/03 11:44:42;;;;;;;;;;;21.10;98.00;;;;;;5003570;28;19917;-79
2022/06/03 11:47:10;;;;;;;;;;;21.20;94.80;;;;;;5063673;28;20344;-77
2022/06/03 11:49:36;;;;;;;;;;;21.50;95.50;;;;;;5039644;28;19963;-81
2022/06/03 11:52:02;;;;;;;;;;;21.60;90.20;;;;;;5025724;28;20330;-79
2022/06/03 11:54:28;;;;;;;;;;;21.50;95.80;;;;;;5068483;28;19922;-77
2022/06/03 11:56:54;;;;;;;;;;;21.70;92.90;;;;;;5036379;28;19920;-80
2022/06/03 11:59:20;;;;;;;;;;;21.80;90.10;;;;;;5007077;28;19917;-79
2022/06/03 12:01:48;;;;;;;;;;;21.90;88.90;;;;;;5007600;28;19921;-81
2022/06/03 12:04:34;;;;;;;;;;;21.80;92.50;;;;;;5005720;28;19923;-80
2022/06/03 12:07:00;;;;;;;;;;;22.00;92.80;;;;;;5013224;28;19917;-79
2022/06/03 12:09:36;;;;;;;;;;;22.30;92.90;;;;;;5036204;28;19923;-78
2022/06/03 12:15:24;;;;;;;;;;;22.10;91.70;;;;;;5013812;28;19991;-78
2022/06/03 12:17:50;;;;;;;;;;;22.20;90.60;;;;;;5021244;28;20032;-78
2022/06/03 12:20:34;;;;;;;;;;;22.20;88.30;;;;;;5032689;28;19948;-80
2022/06/03 12:23:12;;;;;;;;;;;22.20;91.80;;;;;;5034617;28;19916;-78
2022/06/03 12:25:53;;;;;;;;;;;22.40;91.50;;;;;;5012174;28;19916;-78
2022/06/03 12:28:25;;;;;;;;;;;22.50;84.30;;;;;;5023178;28;19974;-76
2022/06/03 12:30:50;;;;;;;;;;;22.90;91.70;;;;;;5019260;28;19956;-81
2022/06/03 12:33:21;;;;;;;;;;;23.20;91.10;;;;;;5022119;28;19970;-76
2022/06/03 12:35:56;;;;;;;;;;;23.30;84.20;;;;;;5035340;28;19924;-81
2022/06/03 12:38:22;;;;;;;;;;;23.20;83.80;;;;;;5010582;28;19928;-76
2022/06/03 12:40:48;;;;;;;;;;;23.30;90.00;;;;;;5015487;28;19920;-77
2022/06/03 12:43:45;;;;;;;;;;;23.50;91.50;;;;;;5007923;28;19917;-78
2022/06/03 12:46:31;;;;;;;;;;;23.70;84.40;;;;;;4997430;28;19931;-77
2022/06/03 12:48:56;;;;;;;;;;;23.90;87.50;;;;;;5022054;28;20424;-78
2022/06/03 12:51:22;;;;;;;;;;;23.90;85.30;;;;;;5005897;28;19956;-78
2022/06/03 12:53:48;;;;;;;;;;;23.60;81.30;;;;;;5051741;28;20350;-80
2022/06/03 12:56:33;;;;;;;;;;;23.30;90.20;;;;;;5019231;28;19966;-76
2022/06/03 12:59:03;;;;;;;;;;;23.40;90.30;;;;;;5021789;28;19949;-78
2022/06/03 13:01:31;;;;;;;;;;;23.50;89.10;;;;;;5009086;28;19928;-78
2022/06/03 13:04:16;;;;;;;;;;;23.30;82.70;;;;;;5044389;28;19957;-76
2022/06/03 13:07:01;;;;;;;;;;;22.70;90.20;;;;;;5002756;28;19924;-79
2022/06/03 13:10:02;;;;;;;;;;;22.50;90.80;;;;;;5037493;28;20334;-76
2022/06/03 13:12:28;;;;;;;;;;;22.40;89.00;;;;;;4971520;28;20370;-79
2022/06/03 13:14:53;;;;;;;;;;;22.50;86.70;;;;;;5024085;28;19917;-79
2022/06/03 13:17:38;;;;;;;;;;;22.20;87.20;;;;;;5018635;28;19975;-80
2022/06/03 13:20:04;;;;;;;;;;;22.00;90.20;;;;;;5021370;28;20274;-77
2022/06/03 13:22:44;;;;;;;;;;;21.90;91.70;;;;;;5025204;28;20267;-76
2022/06/03 13:25:16;;;;;;;;;;;22.10;88.80;;;;;;5020858;28;19967;-77
2022/06/03 13:28:01;;;;;;;;;;;22.30;91.10;;;;;;5051217;28;20003;-75
2022/06/03 13:30:34;;;;;;;;;;;22.30;83.50;;;;;;5041120;28;19916;-78
2022/06/03 13:33:01;;;;;;;;;;;22.20;83.00;;;;;;5043971;28;20742;-76
2022/06/03 13:35:31;;;;;;;;;;;22.30;83.70;;;;;;5049941;28;19967;-80
2022/06/03 13:37:57;;;;;;;;;;;22.30;81.30;;;;;;5020993;28;19967;-76
2022/06/03 13:40:26;;;;;;;;;;;22.50;85.00;;;;;;5023137;28;19921;-82
2022/06/03 13:43:03;;;;;;;;;;;22.70;81.60;;;;;;5047244;28;20015;-77
2022/06/03 13:45:40;;;;;;;;;;;22.80;80.00;;;;;;5048075;28;20433;-80
2022/06/03 13:48:11;;;;;;;;;;;22.70;83.40;;;;;;5008812;28;19917;-78
2022/06/03 13:50:37;;;;;;;;;;;22.70;79.40;;;;;;5018339;28;19917;-75
2022/06/03 13:53:04;;;;;;;;;;;23.00;81.20;;;;;;5034172;28;19948;-78
2022/06/03 13:55:33;;;;;;;;;;;23.40;82.00;;;;;;5018232;28;19920;-76
2022/06/03 13:57:59;;;;;;;;;;;23.80;86.20;;;;;;5067058;28;19924;-79
2022/06/03 14:00:28;;;;;;;;;;;24.00;77.20;;;;;;5017905;28;19952;-79
2022/06/03 14:03:14;;;;;;;;;;;23.80;75.40;;;;;;5046665;28;19917;-80
2022/06/03 14:06:03;;;;;;;;;;;23.70;73.30;;;;;;5010572;28;19921;-76
2022/06/03 14:08:35;;;;;;;;;;;23.50;75.20;;;;;;4975729;28;20324;-79
2022/06/03 14:11:03;;;;;;;;;;;23.20;72.80;;;;;;5017664;28;19920;-77
2022/06/03 14:13:48;;;;;;;;;;;23.20;72.00;;;;;;5034000;28;20263;-77
2022/06/03 14:16:32;;;;;;;;;;;23.40;72.00;;;;;;5035096;28;19982;-79
2022/06/03 14:19:01;;;;;;;;;;;23.40;68.40;;;;;;5020008;28;19967;-79
2022/06/03 14:21:33;;;;;;;;;;;23.50;70.60;;;;;;5032762;28;19965;-79
2022/06/03 14:24:05;;;;;;;;;;;23.90;72.50;;;;;;5025080;28;20362;-77
2022/06/03 14:26:34;;;;;;;;;;;24.30;67.10;;;;;;5031309;28;20275;-80
2022/06/03 14:29:14;;;;;;;;;;;24.30;66.10;;;;;;5023483;28;19974;-76
2022/06/03 14:31:41;;;;;;;;;;;23.90;64.30;;;;;;5024198;28;19917;-75
2022/06/03 14:34:26;;;;;;;;;;;23.90;66.80;;;;;;5037317;28;19932;-77
2022/06/03 14:36:53;;;;;;;;;;;23.70;65.30;;;;;;5038088;28;19979;-77
2022/06/03 14:39:33;;;;;;;;;;;23.50;63.00;;;;;;5025536;28;19963;-80
2022/06/03 14:42:01;;;;;;;;;;;23.30;64.40;;;;;;5038831;28;19978;-77
2022/06/03 14:44:28;;;;;;;;;;;23.40;64.70;;;;;;5034029;28;19917;-78
2022/06/03 14:46:58;;;;;;;;;;;24.00;66.20;;;;;;5047263;28;20380;-75
2022/06/03 14:49:32;;;;;;;;;;;24.50;66.10;;;;;;5004297;28;19920;-79
2022/06/03 14:52:18;;;;;;;;;;;24.90;63.30;;;;;;5061906;28;19923;-76
2022/06/03 14:55:04;;;;;;;;;;;24.60;61.60;;;;;;5014639;28;19917;-78
2022/06/03 14:57:35;;;;;;;;;;;24.60;62.10;;;;;;5019204;28;19939;-77
2022/06/03 15:00:04;;;;;;;;;;;24.60;59.50;;;;;;5037813;28;19923;-78
2022/06/03 15:03:08;;;;;;;;;;;24.50;58.00;;;;;;5038228;28;19921;-79
2022/06/03 15:05:44;;;;;;;;;;;24.50;59.40;;;;;;4973025;28;20001;-74
2022/06/03 15:08:27;;;;;;;;;;;24.20;58.90;;;;;;4994381;28;20361;-75
2022/06/03 15:10:57;;;;;;;;;;;23.80;61.00;;;;;;4997180;28;19991;-79
2022/06/03 15:13:24;;;;;;;;;;;23.60;61.90;;;;;;5014286;28;19956;-74
2022/06/03 15:15:50;;;;;;;;;;;23.90;61.70;;;;;;5058280;28;19977;-79
2022/06/03 15:18:17;;;;;;;;;;;24.20;59.60;;;;;;5041273;28;19999;-78
2022/06/03 15:20:53;;;;;;;;;;;23.90;59.10;;;;;;5020514;28;19928;-75
2022/06/03 15:23:19;;;;;;;;;;;23.90;61.70;;;;;;5070536;28;19921;-77
2022/06/03 15:25:48;;;;;;;;;;;24.40;62.30;;;;;;5053164;28;19928;-76
2022/06/03 15:28:15;;;;;;;;;;;24.30;60.10;;;;;;5032814;28;20369;-76
2022/06/03 15:30:42;;;;;;;;;;;24.20;58.90;;;;;;5020425;28;19924;-78
2022/06/03 15:33:10;;;;;;;;;;;24.30;62.10;;;;;;5069285;28;19970;-79
2022/06/03 15:35:36;;;;;;;;;;;24.50;60.50;;;;;;5058740;28;20006;-77